sensor_id;sensor_type;location;lat;lon;timestamp;pressure;altitude;pressure_sealevel;temperature;humidity
54194;BME280;40102;50.906;6.972;2023-03-31T00:01:38;99971.22;;;12.42;73.03
54194;BME280;40102;50.906;6.972;2023-03-31T00:04:10;99963.41;;;12.39;73.89
54194;BME280;40102;50.906;6.972;2023-03-31T00:06:39;99965.75;;;12.44;74.21
54194;BME280;40102;50.906;6.972;2023-03-31T00:09:12;99955.28;;;12.52;74.49
54194;BME280;40102;50.906;6.972;2023-03-31T00:11:39;99948.09;;;12.52;74.63
54194;BME280;40102;50.906;6.972;2023-03-31T00:14:06;99955.28;;;12.52;75.35
54194;BME280;40102;50.906;6.972;2023-03-31T00:16:36;99949.41;;;12.47;75.38
54194;BME280;40102;50.906;6.972;2023-03-31T00:19:02;99946.63;;;12.48;75.19
54194;BME280;40102;50.906;6.972;2023-03-31T00:21:29;99939.44;;;12.49;75.38
54194;BME280;40102;50.906;6.972;2023-03-31T00:24:04;99935.44;;;12.54;75.26
54194;BME280;40102;50.906;6.972;2023-03-31T00:26:31;99930.06;;;12.54;75.04
54194;BME280;40102;50.906;6.972;2023-03-31T00:28:57;99909.47;;;12.55;74.99
54194;BME280;40102;50.906;6.972;2023-03-31T00:31:24;99912.16;;;12.55;75.10
54194;BME280;40102;50.906;6.972;2023-03-31T00:33:56;99912.75;;;12.58;75.03
54194;BME280;40102;50.906;6.972;2023-03-31T00:36:22;99899.34;;;12.58;75.08
54194;BME280;40102;50.906;6.972;2023-03-31T00:38:53;99889.09;;;12.52;75.20
54194;BME280;40102;50.906;6.972;2023-03-31T00:41:18;99883.84;;;12.51;75.68
54194;BME280;40102;50.906;6.972;2023-03-31T00:49:46;99849.22;;;12.48;76.05
54194;BME280;40102;50.906;6.972;2023-03-31T00:52:18;99844.94;;;12.45;76.23
54194;BME280;40102;50.906;6.972;2023-03-31T00:54:58;99849.22;;;12.48;76.66
54194;BME280;40102;50.906;6.972;2023-03-31T00:57:26;99841.75;;;12.40;76.39
54194;BME280;40102;50.906;6.972;2023-03-31T00:59:57;99839.53;;;12.34;76.50
54194;BME280;40102;50.906;6.972;2023-03-31T01:02:24;99839.03;;;12.29;77.13
54194;BME280;40102;50.906;6.972;2023-03-31T01:04:53;99828.56;;;12.26;76.99
54194;BME280;40102;50.906;6.972;2023-03-31T01:09:47;99808.19;;;12.23;77.11
54194;BME280;40102;50.906;6.972;2023-03-31T01:12:16;99808.06;;;12.25;77.27
54194;BME280;40102;50.906;6.972;2023-03-31T01:14:42;99811.84;;;12.22;77.76
54194;BME280;40102;50.906;6.972;2023-03-31T01:17:08;99807.34;;;12.23;77.59
54194;BME280;40102;50.906;6.972;2023-03-31T01:23:20;99797.81;;;12.19;78.04
54194;BME280;40102;50.906;6.972;2023-03-31T01:37:23;99774.78;;;12.16;78.15
54194;BME280;40102;50.906;6.972;2023-03-31T01:46:20;99773.47;;;12.22;78.23
54194;BME280;40102;50.906;6.972;2023-03-31T01:48:58;99759.31;;;12.20;78.08
54194;BME280;40102;50.906;6.972;2023-03-31T01:56:59;99760.03;;;12.11;78.37
54194;BME280;40102;50.906;6.972;2023-03-31T02:02:16;99755.53;;;12.11;79.17
54194;BME280;40102;50.906;6.972;2023-03-31T02:04:52;99745.91;;;12.09;79.75
54194;BME280;40102;50.906;6.972;2023-03-31T02:07:26;99742.34;;;12.08;79.93
54194;BME280;40102;50.906;6.972;2023-03-31T02:09:59;99741.50;;;12.08;80.48
54194;BME280;40102;50.906;6.972;2023-03-31T02:12:27;99736.75;;;12.11;80.59
54194;BME280;40102;50.906;6.972;2023-03-31T02:14:57;99738.13;;;12.17;80.25
54194;BME280;40102;50.906;6.972;2023-03-31T02:17:26;99728.34;;;12.16;80.81
54194;BME280;40102;50.906;6.972;2023-03-31T02:20:00;99717.16;;;12.11;81.41
54194;BME280;40102;50.906;6.972;2023-03-31T02:22:32;99711.91;;;12.09;81.81
54194;BME280;40102;50.906;6.972;2023-03-31T02:25:01;99692.53;;;12.06;81.75
54194;BME280;40102;50.906;6.972;2023-03-31T02:27:31;99688.00;;;12.06;82.20
54194;BME280;40102;50.906;6.972;2023-03-31T02:29:58;99680.59;;;12.10;82.06
54194;BME280;40102;50.906;6.972;2023-03-31T02:34:58;99643.19;;;12.08;82.67
54194;BME280;40102;50.906;6.972;2023-03-31T02:37:26;99637.69;;;11.98;83.36
54194;BME280;40102;50.906;6.972;2023-03-31T02:39:54;99643.78;;;12.00;83.81
54194;BME280;40102;50.906;6.972;2023-03-31T02:42:21;99629.91;;;11.95;84.14
54194;BME280;40102;50.906;6.972;2023-03-31T02:44:48;99622.34;;;11.89;84.77
54194;BME280;40102;50.906;6.972;2023-03-31T02:47:15;99620.03;;;11.85;84.75
54194;BME280;40102;50.906;6.972;2023-03-31T02:49:45;99623.31;;;11.88;84.69
54194;BME280;40102;50.906;6.972;2023-03-31T03:00:52;99557.31;;;11.98;84.10
54194;BME280;40102;50.906;6.972;2023-03-31T03:03:37;99547.06;;;11.92;84.55
54194;BME280;40102;50.906;6.972;2023-03-31T03:11:39;99541.47;;;11.84;84.48
54194;BME280;40102;50.906;6.972;2023-03-31T03:16:43;99533.06;;;11.89;83.57
54194;BME280;40102;50.906;6.972;2023-03-31T03:19:09;99518.94;;;11.87;83.41
54194;BME280;40102;50.906;6.972;2023-03-31T03:21:41;99521.88;;;11.84;84.13
54194;BME280;40102;50.906;6.972;2023-03-31T03:24:12;99523.69;;;11.83;84.22
54194;BME280;40102;50.906;6.972;2023-03-31T03:26:38;99536.47;;;11.80;84.27
54194;BME280;40102;50.906;6.972;2023-03-31T03:29:04;99530.47;;;11.76;83.99
54194;BME280;40102;50.906;6.972;2023-03-31T03:31:30;99510.38;;;11.71;83.87
54194;BME280;40102;50.906;6.972;2023-03-31T03:33:58;99519.66;;;11.78;83.58
54194;BME280;40102;50.906;6.972;2023-03-31T03:36:25;99504.31;;;11.80;82.95
54194;BME280;40102;50.906;6.972;2023-03-31T03:38:50;99491.28;;;11.86;82.11
54194;BME280;40102;50.906;6.972;2023-03-31T03:41:16;99492.50;;;11.82;81.62
54194;BME280;40102;50.906;6.972;2023-03-31T03:43:42;99473.75;;;11.82;81.25
54194;BME280;40102;50.906;6.972;2023-03-31T03:46:08;99481.69;;;11.84;81.13
54194;BME280;40102;50.906;6.972;2023-03-31T03:48:33;99479.84;;;11.84;81.08
54194;BME280;40102;50.906;6.972;2023-03-31T03:51:00;99475.09;;;11.88;79.94
54194;BME280;40102;50.906;6.972;2023-03-31T03:53:26;99472.66;;;11.85;80.01
54194;BME280;40102;50.906;6.972;2023-03-31T03:55:52;99468.41;;;11.82;79.53
54194;BME280;40102;50.906;6.972;2023-03-31T03:58:18;99476.44;;;11.82;78.76
54194;BME280;40102;50.906;6.972;2023-03-31T04:00:45;99458.53;;;11.83;78.66
54194;BME280;40102;50.906;6.972;2023-03-31T04:03:12;99446.13;;;11.82;78.91
54194;BME280;40102;50.906;6.972;2023-03-31T04:05:39;99453.91;;;11.85;79.36
54194;BME280;40102;50.906;6.972;2023-03-31T04:08:05;99441.13;;;11.77;80.44
54194;BME280;40102;50.906;6.972;2023-03-31T04:10:33;99432.47;;;11.74;80.62
54194;BME280;40102;50.906;6.972;2023-03-31T04:12:59;99438.47;;;11.77;80.83
54194;BME280;40102;50.906;6.972;2023-03-31T04:15:25;99442.72;;;11.80;81.27
54194;BME280;40102;50.906;6.972;2023-03-31T04:17:50;99445.00;;;11.73;81.59
54194;BME280;40102;50.906;6.972;2023-03-31T04:20:20;99414.56;;;11.74;80.92
54194;BME280;40102;50.906;6.972;2023-03-31T04:22:46;99427.22;;;11.72;81.47
54194;BME280;40102;50.906;6.972;2023-03-31T04:25:15;99392.41;;;11.61;80.67
54194;BME280;40102;50.906;6.972;2023-03-31T04:27:44;99398.75;;;11.60;80.63
54194;BME280;40102;50.906;6.972;2023-03-31T04:30:20;99383.66;;;11.59;81.15
54194;BME280;40102;50.906;6.972;2023-03-31T04:33:00;99361.63;;;11.55;82.83
54194;BME280;40102;50.906;6.972;2023-03-31T04:35:28;99340.47;;;11.52;82.14
54194;BME280;40102;50.906;6.972;2023-03-31T04:38:07;99344.47;;;11.58;83.02
54194;BME280;40102;50.906;6.972;2023-03-31T04:40:33;99338.13;;;11.59;82.64
54194;BME280;40102;50.906;6.972;2023-03-31T04:43:00;99334.59;;;11.58;82.90
54194;BME280;40102;50.906;6.972;2023-03-31T04:45:26;99334.13;;;11.53;83.06
54194;BME280;40102;50.906;6.972;2023-03-31T04:47:52;99328.78;;;11.53;82.75
54194;BME280;40102;50.906;6.972;2023-03-31T04:50:18;99326.09;;;11.53;82.00
54194;BME280;40102;50.906;6.972;2023-03-31T04:52:44;99316.25;;;11.54;82.24
54194;BME280;40102;50.906;6.972;2023-03-31T04:55:11;99312.22;;;11.48;81.54
54194;BME280;40102;50.906;6.972;2023-03-31T04:57:36;99309.91;;;11.55;81.79
54194;BME280;40102;50.906;6.972;2023-03-31T05:00:03;99297.38;;;11.55;80.47
54194;BME280;40102;50.906;6.972;2023-03-31T05:02:33;99291.78;;;11.47;80.48
54194;BME280;40102;50.906;6.972;2023-03-31T05:04:59;99282.69;;;11.39;80.05
54194;BME280;40102;50.906;6.972;2023-03-31T05:07:25;99284.50;;;11.38;80.12
54194;BME280;40102;50.906;6.972;2023-03-31T05:09:51;99279.75;;;11.42;79.72
54194;BME280;40102;50.906;6.972;2023-03-31T05:12:16;99276.09;;;11.43;79.49
54194;BME280;40102;50.906;6.972;2023-03-31T05:14:42;99263.44;;;11.45;79.61
54194;BME280;40102;50.906;6.972;2023-03-31T05:17:08;99254.19;;;11.49;79.62
54194;BME280;40102;50.906;6.972;2023-03-31T05:19:34;99256.84;;;11.49;79.49
54194;BME280;40102;50.906;6.972;2023-03-31T05:22:00;99245.88;;;11.52;79.04
54194;BME280;40102;50.906;6.972;2023-03-31T05:24:25;99238.19;;;11.58;78.32
54194;BME280;40102;50.906;6.972;2023-03-31T05:26:53;99253.66;;;11.55;77.81
54194;BME280;40102;50.906;6.972;2023-03-31T05:29:18;99250.16;;;11.54;77.49
54194;BME280;40102;50.906;6.972;2023-03-31T05:31:44;99237.47;;;11.56;76.72
54194;BME280;40102;50.906;6.972;2023-03-31T05:34:10;99235.09;;;11.74;81.41
54194;BME280;40102;50.906;6.972;2023-03-31T05:36:36;99227.38;;;11.92;77.05
54194;BME280;40102;50.906;6.972;2023-03-31T05:39:03;99217.69;;;12.00;75.80
54194;BME280;40102;50.906;6.972;2023-03-31T05:41:30;99220.56;;;12.09;76.95
54194;BME280;40102;50.906;6.972;2023-03-31T05:43:56;99206.13;;;12.21;77.07
54194;BME280;40102;50.906;6.972;2023-03-31T05:46:22;99208.22;;;12.17;76.00
54194;BME280;40102;50.906;6.972;2023-03-31T05:48:48;99211.34;;;12.02;75.03
54194;BME280;40102;50.906;6.972;2023-03-31T05:51:14;99208.59;;;11.92;74.98
54194;BME280;40102;50.906;6.972;2023-03-31T05:53:43;99206.84;;;11.81;74.56
54194;BME280;40102;50.906;6.972;2023-03-31T05:56:09;99214.88;;;11.81;74.31
54194;BME280;40102;50.906;6.972;2023-03-31T05:58:36;99204.78;;;11.74;74.45
54194;BME280;40102;50.906;6.972;2023-03-31T06:01:08;99212.56;;;11.77;74.04
54194;BME280;40102;50.906;6.972;2023-03-31T06:03:37;99203.81;;;11.75;73.18
54194;BME280;40102;50.906;6.972;2023-03-31T06:06:04;99203.81;;;11.75;73.10
54194;BME280;40102;50.906;6.972;2023-03-31T06:08:31;99205.88;;;11.71;72.20
54194;BME280;40102;50.906;6.972;2023-03-31T06:10:59;99212.09;;;11.72;72.11
54194;BME280;40102;50.906;6.972;2023-03-31T06:13:26;99197.59;;;11.74;72.17
54194;BME280;40102;50.906;6.972;2023-03-31T06:15:54;99189.81;;;11.71;70.66
54194;BME280;40102;50.906;6.972;2023-03-31T06:18:20;99181.31;;;11.66;70.51
54194;BME280;40102;50.906;6.972;2023-03-31T06:20:46;99178.63;;;11.66;70.88
54194;BME280;40102;50.906;6.972;2023-03-31T06:23:12;99179.16;;;11.60;69.86
54194;BME280;40102;50.906;6.972;2023-03-31T06:25:41;99175.03;;;11.56;70.54
54194;BME280;40102;50.906;6.972;2023-03-31T06:28:07;99189.41;;;11.55;71.12
54194;BME280;40102;50.906;6.972;2023-03-31T06:30:33;99178.94;;;11.52;71.78
54194;BME280;40102;50.906;6.972;2023-03-31T06:33:00;99166.81;;;11.48;72.51
54194;BME280;40102;50.906;6.972;2023-03-31T06:35:26;99170.84;;;11.42;73.48
54194;BME280;40102;50.906;6.972;2023-03-31T06:37:52;99173.78;;;11.39;72.87
54194;BME280;40102;50.906;6.972;2023-03-31T06:40:18;99163.66;;;11.43;73.00
54194;BME280;40102;50.906;6.972;2023-03-31T06:42:44;99170.00;;;11.42;73.19
54194;BME280;40102;50.906;6.972;2023-03-31T06:45:09;99172.66;;;11.42;73.10
54194;BME280;40102;50.906;6.972;2023-03-31T06:47:36;99162.22;;;11.39;73.50
54194;BME280;40102;50.906;6.972;2023-03-31T06:50:06;99160.66;;;11.36;73.42
54194;BME280;40102;50.906;6.972;2023-03-31T06:52:33;99157.13;;;11.35;73.28
54194;BME280;40102;50.906;6.972;2023-03-31T06:54:59;99152.34;;;11.39;73.38
54194;BME280;40102;50.906;6.972;2023-03-31T06:57:26;99158.19;;;11.44;73.47
54194;BME280;40102;50.906;6.972;2023-03-31T06:59:51;99141.25;;;11.44;72.75
54194;BME280;40102;50.906;6.972;2023-03-31T07:02:17;99143.69;;;11.47;73.20
54194;BME280;40102;50.906;6.972;2023-03-31T07:04:43;99148.19;;;11.46;73.51
54194;BME280;40102;50.906;6.972;2023-03-31T07:07:08;99133.94;;;11.46;72.39
54194;BME280;40102;50.906;6.972;2023-03-31T07:09:35;99136.81;;;11.54;72.84
54194;BME280;40102;50.906;6.972;2023-03-31T07:12:00;99132.31;;;11.54;72.37
54194;BME280;40102;50.906;6.972;2023-03-31T07:14:30;99130.25;;;11.58;72.22
54194;BME280;40102;50.906;6.972;2023-03-31T07:16:57;99137.28;;;11.59;71.87
54194;BME280;40102;50.906;6.972;2023-03-31T07:19:23;99141.28;;;11.64;72.33
54194;BME280;40102;50.906;6.972;2023-03-31T07:21:50;99119.84;;;11.64;71.69
54194;BME280;40102;50.906;6.972;2023-03-31T07:24:16;99138.00;;;11.61;71.94
54194;BME280;40102;50.906;6.972;2023-03-31T07:26:42;99127.44;;;11.59;71.51
54194;BME280;40102;50.906;6.972;2023-03-31T07:29:08;99132.25;;;11.65;71.85
54194;BME280;40102;50.906;6.972;2023-03-31T07:31:34;99131.53;;;11.63;71.85
54194;BME280;40102;50.906;6.972;2023-03-31T07:34:01;99122.78;;;11.61;71.87
54194;BME280;40102;50.906;6.972;2023-03-31T07:36:27;99125.06;;;11.66;71.91
54194;BME280;40102;50.906;6.972;2023-03-31T07:38:52;99125.78;;;11.68;72.34
54194;BME280;40102;50.906;6.972;2023-03-31T07:41:20;99115.22;;;11.66;71.98
54194;BME280;40102;50.906;6.972;2023-03-31T07:43:47;99124.94;;;11.67;72.34
54194;BME280;40102;50.906;6.972;2023-03-31T07:46:23;99120.03;;;11.73;72.40
54194;BME280;40102;50.906;6.972;2023-03-31T07:48:49;99114.19;;;11.79;72.51
54194;BME280;40102;50.906;6.972;2023-03-31T07:51:17;99122.81;;;11.82;72.14
54194;BME280;40102;50.906;6.972;2023-03-31T07:53:43;99112.94;;;11.83;72.29
54194;BME280;40102;50.906;6.972;2023-03-31T07:56:10;99115.09;;;11.89;72.52
54194;BME280;40102;50.906;6.972;2023-03-31T07:58:35;99109.47;;;11.92;72.43
54194;BME280;40102;50.906;6.972;2023-03-31T08:01:02;99116.41;;;11.94;72.53
54194;BME280;40102;50.906;6.972;2023-03-31T08:03:29;99118.81;;;11.97;72.70
54194;BME280;40102;50.906;6.972;2023-03-31T08:05:56;99121.22;;;12.00;72.80
54194;BME280;40102;50.906;6.972;2023-03-31T08:08:22;99107.38;;;11.95;72.16
54194;BME280;40102;50.906;6.972;2023-03-31T08:10:48;99103.59;;;11.98;72.26
54194;BME280;40102;50.906;6.972;2023-03-31T08:13:14;99097.25;;;11.99;72.57
54194;BME280;40102;50.906;6.972;2023-03-31T08:15:41;99104.03;;;12.03;72.66
54194;BME280;40102;50.906;6.972;2023-03-31T08:18:07;99108.41;;;12.04;72.83
54194;BME280;40102;50.906;6.972;2023-03-31T08:20:33;99097.56;;;12.06;72.38
54194;BME280;40102;50.906;6.972;2023-03-31T08:22:58;99098.84;;;12.11;72.81
54194;BME280;40102;50.906;6.972;2023-03-31T08:25:24;99084.59;;;12.11;72.95
54194;BME280;40102;50.906;6.972;2023-03-31T08:27:50;99082.78;;;12.11;72.94
54194;BME280;40102;50.906;6.972;2023-03-31T08:30:17;99089.44;;;12.17;73.34
54194;BME280;40102;50.906;6.972;2023-03-31T08:32:43;99079.41;;;12.19;72.95
54194;BME280;40102;50.906;6.972;2023-03-31T08:35:09;99086.47;;;12.20;72.14
54194;BME280;40102;50.906;6.972;2023-03-31T08:37:37;99084.81;;;12.28;71.79
54194;BME280;40102;50.906;6.972;2023-03-31T08:40:05;99083.13;;;12.27;71.80
54194;BME280;40102;50.906;6.972;2023-03-31T08:42:44;99081.88;;;12.31;71.09
54194;BME280;40102;50.906;6.972;2023-03-31T08:47:44;99074.25;;;12.37;69.60
54194;BME280;40102;50.906;6.972;2023-03-31T08:50:17;99078.50;;;12.39;69.40
54194;BME280;40102;50.906;6.972;2023-03-31T08:52:56;99073.16;;;12.39;69.00
54194;BME280;40102;50.906;6.972;2023-03-31T08:55:29;99058.75;;;12.40;69.16
54194;BME280;40102;50.906;6.972;2023-03-31T08:58:04;99067.50;;;12.42;69.14
54194;BME280;40102;50.906;6.972;2023-03-31T09:00:59;99062.31;;;12.50;69.39
54194;BME280;40102;50.906;6.972;2023-03-31T09:03:36;99059.06;;;12.56;69.29
54194;BME280;40102;50.906;6.972;2023-03-31T09:06:15;99065.00;;;12.60;68.74
54194;BME280;40102;50.906;6.972;2023-03-31T09:08:44;99068.25;;;12.63;68.69
54194;BME280;40102;50.906;6.972;2023-03-31T09:19:42;99059.69;;;12.79;68.77
54194;BME280;40102;50.906;6.972;2023-03-31T09:22:25;99074.94;;;12.88;68.51
54194;BME280;40102;50.906;6.972;2023-03-31T09:25:05;99043.31;;;12.92;68.45
54194;BME280;40102;50.906;6.972;2023-03-31T09:27:33;99047.41;;;13.06;68.02
54194;BME280;40102;50.906;6.972;2023-03-31T09:30:12;99045.00;;;13.03;66.89
54194;BME280;40102;50.906;6.972;2023-03-31T09:32:40;99039.63;;;13.03;67.80
54194;BME280;40102;50.906;6.972;2023-03-31T09:35:17;99029.59;;;13.05;67.26
54194;BME280;40102;50.906;6.972;2023-03-31T09:37:44;99037.66;;;13.05;67.83
54194;BME280;40102;50.906;6.972;2023-03-31T09:40:18;99060.53;;;13.09;68.97
54194;BME280;40102;50.906;6.972;2023-03-31T09:42:45;99062.09;;;13.02;73.14
54194;BME280;40102;50.906;6.972;2023-03-31T09:45:19;99079.88;;;12.83;74.41
54194;BME280;40102;50.906;6.972;2023-03-31T09:47:46;99031.44;;;12.75;75.22
54194;BME280;40102;50.906;6.972;2023-03-31T09:50:14;99007.84;;;12.59;75.90
54194;BME280;40102;50.906;6.972;2023-03-31T09:52:45;99010.22;;;12.53;76.84
54194;BME280;40102;50.906;6.972;2023-03-31T09:55:31;99028.59;;;12.57;74.40
54194;BME280;40102;50.906;6.972;2023-03-31T09:57:59;99002.03;;;12.54;74.87
54194;BME280;40102;50.906;6.972;2023-03-31T10:00:26;99008.97;;;12.57;73.63
54194;BME280;40102;50.906;6.972;2023-03-31T10:02:56;99001.19;;;12.54;73.56
54194;BME280;40102;50.906;6.972;2023-03-31T10:10:56;99010.81;;;12.76;70.71
54194;BME280;40102;50.906;6.972;2023-03-31T10:13:28;98999.09;;;12.86;68.49
54194;BME280;40102;50.906;6.972;2023-03-31T10:16:04;99001.78;;;12.86;68.98
54194;BME280;40102;50.906;6.972;2023-03-31T10:18:36;98992.31;;;13.02;66.74
54194;BME280;40102;50.906;6.972;2023-03-31T10:21:05;98988.94;;;12.90;68.56
54194;BME280;40102;50.906;6.972;2023-03-31T10:23:33;99004.75;;;12.93;67.79
54194;BME280;40102;50.906;6.972;2023-03-31T10:25:59;99001.34;;;12.91;67.93
54194;BME280;40102;50.906;6.972;2023-03-31T10:28:30;99001.94;;;12.94;68.44
54194;BME280;40102;50.906;6.972;2023-03-31T10:30:58;98993.72;;;12.96;69.02
54194;BME280;40102;50.906;6.972;2023-03-31T10:33:32;98977.19;;;13.01;69.11
54194;BME280;40102;50.906;6.972;2023-03-31T10:36:01;98965.19;;;13.05;69.63
54194;BME280;40102;50.906;6.972;2023-03-31T10:38:38;98982.00;;;13.07;68.83
54194;BME280;40102;50.906;6.972;2023-03-31T10:41:05;98986.50;;;13.16;67.57
54194;BME280;40102;50.906;6.972;2023-03-31T10:43:50;98980.28;;;13.15;65.90
54194;BME280;40102;50.906;6.972;2023-03-31T10:46:16;98989.91;;;13.27;64.40
54194;BME280;40102;50.906;6.972;2023-03-31T10:48:42;98992.19;;;13.22;63.46
54194;BME280;40102;50.906;6.972;2023-03-31T10:59:06;98973.81;;;13.18;63.84
54194;BME280;40102;50.906;6.972;2023-03-31T11:12:59;98973.25;;;13.05;64.01
54194;BME280;40102;50.906;6.972;2023-03-31T11:15:29;98971.84;;;13.01;63.71
54194;BME280;40102;50.906;6.972;2023-03-31T11:23:19;98975.22;;;13.03;63.76
54194;BME280;40102;50.906;6.972;2023-03-31T11:25:59;98963.63;;;13.02;64.28
54194;BME280;40102;50.906;6.972;2023-03-31T11:41:42;98962.09;;;13.00;65.46
54194;BME280;40102;50.906;6.972;2023-03-31T11:44:14;98962.66;;;13.03;65.02
54194;BME280;40102;50.906;6.972;2023-03-31T11:47:02;98966.88;;;13.06;65.02
54194;BME280;40102;50.906;6.972;2023-03-31T11:49:42;98960.38;;;13.08;64.37
54194;BME280;40102;50.906;6.972;2023-03-31T11:52:14;98955.31;;;13.05;64.86
54194;BME280;40102;50.906;6.972;2023-03-31T11:57:31;98936.22;;;13.08;64.59
54194;BME280;40102;50.906;6.972;2023-03-31T12:02:47;98945.69;;;13.03;63.92
54194;BME280;40102;50.906;6.972;2023-03-31T12:05:15;98928.91;;;13.01;64.56
54194;BME280;40102;50.906;6.972;2023-03-31T12:07:51;98929.88;;;13.00;64.24
54194;BME280;40102;50.906;6.972;2023-03-31T12:10:31;98931.88;;;12.97;64.77
54194;BME280;40102;50.906;6.972;2023-03-31T12:15:44;98917.03;;;13.03;65.60
54194;BME280;40102;50.906;6.972;2023-03-31T12:18:19;98919.84;;;13.11;65.63
54194;BME280;40102;50.906;6.972;2023-03-31T12:20:59;98897.81;;;13.17;64.98
54194;BME280;40102;50.906;6.972;2023-03-31T12:23:30;98900.50;;;13.17;64.44
54194;BME280;40102;50.906;6.972;2023-03-31T12:28:43;98899.03;;;13.33;64.93
54194;BME280;40102;50.906;6.972;2023-03-31T12:31:16;98892.38;;;13.37;64.25
54194;BME280;40102;50.906;6.972;2023-03-31T12:33:57;98884.28;;;13.46;63.62
54194;BME280;40102;50.906;6.972;2023-03-31T12:51:59;98869.25;;;13.81;59.04
54194;BME280;40102;50.906;6.972;2023-03-31T12:57:26;98882.00;;;13.79;59.36
54194;BME280;40102;50.906;6.972;2023-03-31T13:02:39;98860.94;;;13.74;61.36
54194;BME280;40102;50.906;6.972;2023-03-31T13:08:08;98874.78;;;13.52;63.97
54194;BME280;40102;50.906;6.972;2023-03-31T13:10:56;98875.94;;;13.49;65.20
54194;BME280;40102;50.906;6.972;2023-03-31T13:13:23;98870.69;;;13.48;65.83
54194;BME280;40102;50.906;6.972;2023-03-31T13:15:54;98885.88;;;13.39;67.52
54194;BME280;40102;50.906;6.972;2023-03-31T13:18:21;98902.56;;;13.33;68.49
54194;BME280;40102;50.906;6.972;2023-03-31T13:21:00;98908.66;;;13.25;70.18
54194;BME280;40102;50.906;6.972;2023-03-31T13:23:31;98886.78;;;13.11;71.69
54194;BME280;40102;50.906;6.972;2023-03-31T13:25:58;98884.53;;;13.06;70.68
54194;BME280;40102;50.906;6.972;2023-03-31T13:31:02;98881.69;;;13.08;70.75
54194;BME280;40102;50.906;6.972;2023-03-31T13:33:56;98872.81;;;13.07;71.36
54194;BME280;40102;50.906;6.972;2023-03-31T13:50:41;98863.47;;;13.11;67.72
54194;BME280;40102;50.906;6.972;2023-03-31T14:04:12;98860.03;;;13.28;67.42
54194;BME280;40102;50.906;6.972;2023-03-31T14:06:47;98861.00;;;13.37;66.85
54194;BME280;40102;50.906;6.972;2023-03-31T14:11:53;98860.81;;;13.48;65.94
54194;BME280;40102;50.906;6.972;2023-03-31T14:14:18;98856.38;;;13.57;64.51
54194;BME280;40102;50.906;6.972;2023-03-31T14:16:50;98846.72;;;13.64;63.85
54194;BME280;40102;50.906;6.972;2023-03-31T14:24:43;98839.66;;;13.63;61.49
54194;BME280;40102;50.906;6.972;2023-03-31T14:35:56;98818.31;;;13.61;60.25
54194;BME280;40102;50.906;6.972;2023-03-31T14:38:25;98814.94;;;13.59;60.47
54194;BME280;40102;50.906;6.972;2023-03-31T14:40:52;98827.53;;;13.59;60.19
54194;BME280;40102;50.906;6.972;2023-03-31T14:43:23;98821.00;;;13.61;59.68
54194;BME280;40102;50.906;6.972;2023-03-31T14:46:04;98820.16;;;13.61;58.58
54194;BME280;40102;50.906;6.972;2023-03-31T14:48:35;98807.28;;;13.65;58.46
54194;BME280;40102;50.906;6.972;2023-03-31T14:51:08;98801.31;;;13.71;57.43
54194;BME280;40102;50.906;6.972;2023-03-31T14:53:34;98797.78;;;13.70;57.28
54194;BME280;40102;50.906;6.972;2023-03-31T14:56:06;98805.53;;;13.73;57.86
54194;BME280;40102;50.906;6.972;2023-03-31T14:58:41;98789.56;;;13.72;57.61
54194;BME280;40102;50.906;6.972;2023-03-31T15:01:13;98810.06;;;13.73;57.05
54194;BME280;40102;50.906;6.972;2023-03-31T15:03:41;98806.28;;;13.66;57.31
54194;BME280;40102;50.906;6.972;2023-03-31T15:06:08;98801.75;;;13.66;57.49
54194;BME280;40102;50.906;6.972;2023-03-31T15:08:35;98803.06;;;13.62;57.88
54194;BME280;40102;50.906;6.972;2023-03-31T15:11:11;98794.75;;;13.55;58.95
54194;BME280;40102;50.906;6.972;2023-03-31T15:13:43;98804.50;;;13.56;58.82
54194;BME280;40102;50.906;6.972;2023-03-31T15:18:45;98804.66;;;13.55;59.33
54194;BME280;40102;50.906;6.972;2023-03-31T15:21:32;98811.50;;;13.67;58.68
54194;BME280;40102;50.906;6.972;2023-03-31T15:24:02;98838.53;;;13.66;58.64
54194;BME280;40102;50.906;6.972;2023-03-31T15:26:34;98792.31;;;13.62;57.92
54194;BME280;40102;50.906;6.972;2023-03-31T15:29:31;98818.47;;;13.60;58.48
54194;BME280;40102;50.906;6.972;2023-03-31T15:31:59;98816.34;;;13.64;58.15
54194;BME280;40102;50.906;6.972;2023-03-31T15:34:30;98802.66;;;13.57;58.89
54194;BME280;40102;50.906;6.972;2023-03-31T15:36:58;98822.47;;;13.56;59.18
54194;BME280;40102;50.906;6.972;2023-03-31T15:39:26;98804.34;;;13.58;59.02
54194;BME280;40102;50.906;6.972;2023-03-31T15:41:52;98829.44;;;13.49;59.56
54194;BME280;40102;50.906;6.972;2023-03-31T15:47:45;98821.06;;;13.52;60.27
54194;BME280;40102;50.906;6.972;2023-03-31T15:49:56;98848.63;;;13.54;59.70
54194;BME280;40102;50.906;6.972;2023-03-31T15:54:52;98841.94;;;13.58;60.03
54194;BME280;40102;50.906;6.972;2023-03-31T15:57:17;98870.22;;;13.62;60.83
54194;BME280;40102;50.906;6.972;2023-03-31T16:02:18;98818.28;;;13.44;62.69
54194;BME280;40102;50.906;6.972;2023-03-31T16:04:48;98835.69;;;13.40;62.91
54194;BME280;40102;50.906;6.972;2023-03-31T16:07:21;98821.72;;;13.36;63.63
54194;BME280;40102;50.906;6.972;2023-03-31T16:10:02;98813.97;;;13.33;64.29
54194;BME280;40102;50.906;6.972;2023-03-31T16:12:35;98842.25;;;13.27;64.59
54194;BME280;40102;50.906;6.972;2023-03-31T16:15:11;98866.84;;;13.23;64.88
54194;BME280;40102;50.906;6.972;2023-03-31T16:17:59;98858.53;;;13.16;65.58
54194;BME280;40102;50.906;6.972;2023-03-31T16:20:36;98875.59;;;13.15;66.12
54194;BME280;40102;50.906;6.972;2023-03-31T16:23:13;98871.81;;;13.08;66.59
54194;BME280;40102;50.906;6.972;2023-03-31T16:25:40;98859.53;;;13.06;67.93
54194;BME280;40102;50.906;6.972;2023-03-31T16:28:06;98863.19;;;13.05;69.19
54194;BME280;40102;50.906;6.972;2023-03-31T16:30:39;98859.13;;;13.01;69.03
54194;BME280;40102;50.906;6.972;2023-03-31T16:33:10;98851.50;;;12.96;69.46
54194;BME280;40102;50.906;6.972;2023-03-31T16:35:37;98843.88;;;12.91;69.35